Farnworth, United Kingdom
Current Conditions -  °F | °C
As of 1:20 PM on Friday 24 Oct 2014 (Local Time) from EGCC Reporting Station
Drizzle Drizzle  
Wind Chill: 55°   Ceiling: 3500
Heat Index: 55°   Visibility: 6mi
Dew Point: 50°   Wind: 12mph
Humidity: 82%   Direction: 240°WSW
Pressure: 29.88"   Gusts: NA
Location:  53.55°N, 2.4°W
Report Text: EGCC 241220Z 24010KT 9999 -DZ FEW012 BKN035 13/10 Q1012 NOSIG
Loading
Personal Weather Stations






























Interactive Weather Map
Tropical Storm Tracking
New forecast layout! Learn more

10-Day Weather Forecast

Advertisements
Track Severe Weather on mobile